Time;durP1;ratioP1;P1;durP2;ratioP2;P2;SDS_P1;SDS_P2;PMS_P1;PMS_P2;Temp;Humidity;BMP_temperature;BMP_pressure;BME280_temperature;BME280_humidity;BME280_pressure;Samples;Min_cycle;Max_cycle;Signal;HPM_P1;HPM_P2
2023/07/04 00:00:39;;;;;;;5.53;4.35;;;;;;;20.45;100.00;65133.03;5032182;28;20182;-58
2023/07/04 00:03:04;;;;;;;6.05;5.03;;;;;;;20.35;100.00;65121.97;5030426;28;20305;-56
2023/07/04 00:05:29;;;;;;;6.50;4.38;;;;;;;20.28;100.00;65111.69;5031592;28;20551;-56
2023/07/04 00:07:55;;;;;;;5.90;4.88;;;;;;;20.17;100.00;65105.19;5031649;28;20273;-61
2023/07/04 00:10:21;;;;;;;5.50;4.32;;;;;;;20.17;100.00;65102.63;5031957;28;20280;-60
2023/07/04 00:12:46;;;;;;;4.68;4.25;;;;;;;20.18;100.00;65103.19;5032279;28;20271;-59
2023/07/04 00:15:13;;;;;;;5.43;4.72;;;;;;;20.32;100.00;65116.66;5031946;28;20242;-57
2023/07/04 00:17:39;;;;;;;4.80;4.20;;;;;;;20.45;100.00;65133.03;5031710;28;20230;-58
2023/07/04 00:20:06;;;;;;;4.75;4.18;;;;;;;20.52;100.00;65138.75;5031975;28;20248;-62
2023/07/04 00:22:33;;;;;;;5.55;5.00;;;;;;;20.48;100.00;65133.81;5032084;28;20284;-56
2023/07/04 00:25:00;;;;;;;5.53;4.10;;;;;;;20.46;100.00;65137.25;5031780;28;20607;-59
2023/07/04 00:27:25;;;;;;;5.22;4.68;;;;;;;20.50;100.00;65136.00;5031862;28;20217;-57
2023/07/04 00:29:51;;;;;;;5.22;4.70;;;;;;;20.50;100.00;65139.09;5031672;28;20190;-57
2023/07/04 00:32:16;;;;;;;5.93;4.60;;;;;;;20.45;100.00;65133.03;5031856;28;20212;-60
2023/07/04 00:34:45;;;;;;;8.00;4.80;;;;;;;20.50;100.00;65136.53;5031815;28;20256;-60
2023/07/04 00:37:11;;;;;;;7.40;5.03;;;;;;;20.48;100.00;65136.34;4997852;28;20198;-60
2023/07/04 00:39:37;;;;;;;5.95;5.32;;;;;;;20.50;100.00;65136.00;5030926;28;20198;-60
2023/07/04 00:42:08;;;;;;;6.18;4.75;;;;;;;20.40;100.00;65127.53;4997851;28;20194;-56
2023/07/04 00:44:37;;;;;;;7.00;5.35;;;;;;;20.36;100.00;65125.66;5013957;28;20236;-62
2023/07/04 00:47:15;;;;;;;5.97;4.72;;;;;;;20.26;100.00;65112.59;5031724;28;20221;-57
2023/07/04 00:49:43;;;;;;;5.95;4.75;;;;;;;20.70;100.00;65158.09;5030016;28;20205;-60
2023/07/04 00:52:12;;;;;;;6.93;5.40;;;;;;;20.58;100.00;65147.41;5031280;28;20201;-62
2023/07/04 00:54:40;;;;;;;7.03;4.97;;;;;;;20.53;100.00;65142.44;5031168;28;20221;-60
2023/07/04 00:57:07;;;;;;;8.13;5.70;;;;;;;20.45;100.00;65130.47;5031208;28;20205;-61
2023/07/04 00:59:37;;;;;;;6.07;5.05;;;;;;;20.44;100.00;65131.94;5031341;28;20715;-59
2023/07/04 01:02:04;;;;;;;6.32;5.28;;;;;;;20.45;100.00;65130.47;5013368;28;20208;-57
2023/07/04 01:04:32;;;;;;;6.60;5.43;;;;;;;20.40;100.00;65125.50;5031248;28;20765;-59
2023/07/04 01:07:38;;;;;;;9.32;6.13;;;;;;;20.38;100.00;65127.88;5013260;28;20247;-60
2023/07/04 01:10:07;;;;;;;9.80;5.50;;;;;;;20.31;100.00;65117.56;5008621;28;20241;-61
2023/07/04 01:12:34;;;;;;;7.40;5.63;;;;;;;20.14;100.00;65099.31;5031023;28;20229;-59
2023/07/04 01:15:01;;;;;;;7.63;5.72;;;;;;;19.95;100.00;65081.44;5030739;28;20232;-59
2023/07/04 01:17:26;;;;;;;7.50;5.18;;;;;;;19.94;100.00;65077.78;5013346;28;20561;-61
2023/07/04 01:19:52;;;;;;;8.43;5.57;;;;;;;19.86;100.00;65068.38;5030768;28;20217;-60
2023/07/04 01:22:39;;;;;;;6.82;4.80;;;;;;;19.82;100.00;65058.84;5031111;28;20198;-56
2023/07/04 01:25:08;;;;;;;7.25;5.22;;;;;;;19.95;100.00;65080.88;5030740;28;20667;-57
2023/07/04 01:27:36;;;;;;;6.45;4.88;;;;;;;19.80;100.00;65062.31;5012916;28;20308;-56
2023/07/04 01:30:04;;;;;;;7.53;5.13;;;;;;;19.74;100.00;65053.13;5030876;28;20214;-61
2023/07/04 01:32:31;;;;;;;6.57;5.15;;;;;;;19.69;100.00;65050.19;5031088;28;20328;-56
2023/07/04 01:35:00;;;;;;;6.60;4.95;;;;;;;19.48;100.00;65026.41;5030732;28;20218;-57
2023/07/04 01:37:29;;;;;;;5.80;4.88;;;;;;;19.41;100.00;65021.25;5031025;28;20220;-56
2023/07/04 01:39:59;;;;;;;5.53;4.93;;;;;;;19.34;100.00;65014.06;5030613;28;20220;-57
2023/07/04 01:42:31;;;;;;;6.38;4.95;;;;;;;19.36;100.00;65013.72;5030538;28;20243;-57
2023/07/04 01:45:05;;;;;;;7.13;4.60;;;;;;;19.26;100.00;65000.13;5030997;28;20676;-58
2023/07/04 01:47:39;;;;;;;5.47;4.88;;;;;;;19.10;100.00;64983.00;5030709;28;20215;-60
2023/07/04 01:50:07;;;;;;;5.10;4.60;;;;;;;19.11;100.00;64983.53;5030472;28;20668;-61
2023/07/04 01:52:32;;;;;;;6.22;5.00;;;;;;;19.08;100.00;64985.91;5015005;28;20224;-66
2023/07/04 01:54:58;;;;;;;6.53;5.38;;;;;;;19.05;100.00;64980.03;5016418;28;20226;-57
2023/07/04 01:57:24;;;;;;;7.68;4.90;;;;;;;18.92;100.00;64962.59;5034056;28;20233;-57
2023/07/04 01:59:50;;;;;;;6.82;5.47;;;;;;;18.87;100.00;64957.06;5033956;28;20198;-57
2023/07/04 02:02:15;;;;;;;6.03;5.05;;;;;;;18.84;100.00;64958.88;5033840;28;20629;-58
2023/07/04 02:04:41;;;;;;;7.03;4.95;;;;;;;18.79;100.00;64948.22;5033829;28;20236;-57
2023/07/04 02:07:07;;;;;;;6.32;4.95;;;;;;;18.80;100.00;64951.91;5033839;28;20576;-57
2023/07/04 02:09:33;;;;;;;5.70;4.32;;;;;;;18.81;100.00;64955.56;5034002;28;20226;-56
2023/07/04 02:11:58;;;;;;;4.97;4.47;;;;;;;18.97;100.00;64968.09;5033648;28;20272;-57
2023/07/04 02:14:24;;;;;;;8.98;4.85;;;;;;;18.91;100.00;64964.03;5033341;28;20706;-57
2023/07/04 02:16:50;;;;;;;6.07;5.15;;;;;;;18.94;100.00;64967.91;5033608;28;20524;-57
2023/07/04 02:19:16;;;;;;;5.38;4.88;;;;;;;19.00;100.00;64973.97;5033406;28;20225;-56
2023/07/04 02:21:42;;;;;;;6.18;4.97;;;;;;;19.02;100.00;64978.72;5033553;28;20198;-57
2023/07/04 02:24:07;;;;;;;6.20;4.78;;;;;;;19.07;100.00;64984.25;5033662;28;20217;-60
2023/07/04 02:26:33;;;;;;;5.07;4.57;;;;;;;19.03;100.00;64979.81;5033731;28;20695;-60
2023/07/04 02:28:59;;;;;;;4.35;3.95;;;;;;;19.08;100.00;64982.81;5033903;28;20222;-61
2023/07/04 02:31:25;;;;;;;4.80;4.25;;;;;;;18.91;100.00;64964.59;5033431;28;20201;-61
2023/07/04 02:33:51;;;;;;;5.90;4.68;;;;;;;19.01;100.00;64975.06;5015599;28;20222;-60
2023/07/04 02:36:17;;;;;;;4.88;4.38;;;;;;;19.01;100.00;64975.06;5033270;28;20241;-58
2023/07/04 02:38:42;;;;;;;6.18;4.40;;;;;;;18.89;100.00;64959.81;5015675;28;20217;-56
2023/07/04 02:41:09;;;;;;;11.48;4.80;;;;;;;18.93;100.00;64963.69;5033318;28;20672;-57
2023/07/04 02:43:35;;;;;;;5.70;4.75;;;;;;;19.03;100.00;64975.28;5033469;28;20218;-57
2023/07/04 02:46:02;;;;;;;9.57;5.30;;;;;;;18.97;100.00;64971.22;5015678;28;20186;-60
2023/07/04 02:48:27;;;;;;;6.93;4.70;;;;;;;18.91;100.00;64967.13;5033493;28;20214;-60
2023/07/04 02:50:53;;;;;;;5.47;4.80;;;;;;;18.90;100.00;64962.94;5033291;28;20208;-57
2023/07/04 02:53:21;;;;;;;5.80;4.75;;;;;;;18.84;100.00;64954.31;5032867;28;20722;-56
2023/07/04 02:55:47;;;;;;;5.50;4.50;;;;;;;18.77;100.00;64948.59;5033425;28;20659;-59
2023/07/04 02:58:13;;;;;;;5.78;4.30;;;;;;;18.72;100.00;64943.06;5033068;28;20218;-60
2023/07/04 03:00:38;;;;;;;5.93;4.57;;;;;;;18.63;100.00;64935.69;5033100;28;20194;-60
2023/07/04 03:03:05;;;;;;;4.75;4.25;;;;;;;18.60;100.00;64932.38;5032725;28;20650;-63
2023/07/04 03:05:30;;;;;;;5.15;4.53;;;;;;;18.48;100.00;64919.72;5032963;28;20260;-62
2023/07/04 03:07:56;;;;;;;5.82;3.72;;;;;;;18.44;100.00;64913.28;5033225;28;20214;-56
2023/07/04 03:10:27;;;;;;;4.72;4.03;;;;;;;18.46;100.00;64914.94;5015640;28;20198;-60
2023/07/04 03:12:53;;;;;;;6.53;4.28;;;;;;;18.41;100.00;64909.41;5015274;28;20202;-58
2023/07/04 03:15:18;;;;;;;6.05;4.57;;;;;;;18.39;100.00;64907.19;5032601;28;20206;-59
2023/07/04 03:17:43;;;;;;;4.82;4.32;;;;;;;18.49;100.00;64917.69;5014925;28;20304;-57
2023/07/04 03:20:11;;;;;;;5.68;4.63;;;;;;;18.83;100.00;64955.19;5032882;28;20198;-61
2023/07/04 03:22:38;;;;;;;6.07;4.60;;;;;;;18.80;100.00;64951.91;5032757;28;20269;-62
2023/07/04 03:25:04;;;;;;;5.03;4.50;;;;;;;18.79;100.00;64950.78;5032593;28;20206;-62
2023/07/04 03:27:30;;;;;;;6.25;5.00;;;;;;;18.84;100.00;64956.31;5032322;28;20428;-62
2023/07/04 03:29:55;;;;;;;6.80;4.93;;;;;;;18.77;100.00;64948.59;5032436;28;20285;-61
2023/07/04 03:32:21;;;;;;;5.47;4.82;;;;;;;18.77;100.00;64949.13;5014329;28;20691;-62
2023/07/04 03:34:47;;;;;;;6.55;4.85;;;;;;;18.78;100.00;64947.69;5032373;28;20272;-56
2023/07/04 03:37:12;;;;;;;6.55;4.50;;;;;;;18.62;100.00;64934.59;5032183;28;20205;-57
2023/07/04 03:39:38;;;;;;;6.43;4.78;;;;;;;18.70;100.00;64941.44;5032282;28;20228;-61
2023/07/04 03:42:03;;;;;;;4.53;4.07;;;;;;;18.69;100.00;64937.75;5031543;28;20193;-61
2023/07/04 03:44:29;;;;;;;5.38;4.60;;;;;;;18.72;100.00;64943.06;5031462;28;20249;-61
2023/07/04 03:46:54;;;;;;;5.15;4.65;;;;;;;18.91;100.00;64964.03;5014925;28;20190;-61
2023/07/04 03:49:20;;;;;;;6.43;4.68;;;;;;;18.84;100.00;64956.88;5031128;28;20222;-61
2023/07/04 03:51:45;;;;;;;8.23;5.03;;;;;;;18.91;100.00;64967.13;5013757;28;20355;-61
2023/07/04 03:54:10;;;;;;;4.88;4.45;;;;;;;18.91;100.00;64964.03;5031514;28;20297;-62
2023/07/04 03:56:42;;;;;;;5.50;4.63;;;;;;;18.81;100.00;64953.56;5032338;28;20201;-58
2023/07/04 03:59:08;;;;;;;8.55;5.50;;;;;;;18.89;100.00;64959.81;5032158;28;20229;-57
2023/07/04 04:01:33;;;;;;;4.95;4.22;;;;;;;18.78;100.00;64947.69;5032103;28;20194;-60
2023/07/04 04:03:58;;;;;;;6.20;5.07;;;;;;;18.68;100.00;64936.66;5032007;28;20222;-57
2023/07/04 04:06:24;;;;;;;7.95;4.70;;;;;;;18.70;100.00;64938.31;5032074;28;20683;-58
2023/07/04 04:08:49;;;;;;;6.75;5.72;;;;;;;18.66;100.00;64937.00;5032462;28;20696;-57
2023/07/04 04:11:15;;;;;;;16.73;7.05;;;;;;;18.65;100.00;64935.34;5031868;28;20548;-57
2023/07/04 04:13:40;;;;;;;7.68;4.72;;;;;;;18.66;100.00;64936.47;5031481;28;20220;-62
2023/07/04 04:16:07;;;;;;;8.20;4.78;;;;;;;18.76;100.00;64944.94;5031656;28;20206;-61
2023/07/04 04:18:32;;;;;;;6.60;4.88;;;;;;;18.69;100.00;64940.31;5032090;28;20230;-57
2023/07/04 04:20:58;;;;;;;6.28;4.53;;;;;;;18.84;100.00;64953.75;5031903;28;20202;-57
2023/07/04 04:23:23;;;;;;;6.82;4.57;;;;;;;18.86;100.00;64958.53;5031783;28;20222;-56
2023/07/04 04:25:49;;;;;;;5.00;4.28;;;;;;;19.14;100.00;64986.88;5031512;28;20217;-61
2023/07/04 04:28:14;;;;;;;5.75;4.80;;;;;;;19.10;100.00;64987.56;5031461;28;20279;-61
2023/07/04 04:30:40;;;;;;;6.65;5.35;;;;;;;19.13;100.00;64991.41;5031534;28;20196;-61
2023/07/04 04:33:06;;;;;;;12.00;6.82;;;;;;;19.16;100.00;64992.19;5031737;28;20217;-60
2023/07/04 04:35:32;;;;;;;14.55;8.60;;;;;;;19.41;100.00;65016.16;5031470;28;20218;-60
2023/07/04 04:37:58;;;;;;;7.47;5.45;;;;;;;19.57;100.00;65036.94;5031787;28;20218;-58
2023/07/04 04:40:24;;;;;;;7.88;6.32;;;;;;;19.73;100.00;65054.59;5031353;28;20210;-57
2023/07/04 04:42:55;;;;;;;6.57;4.82;;;;;;;19.81;100.00;65063.44;5031312;28;20247;-57
2023/07/04 04:45:23;;;;;;;7.90;5.90;;;;;;;20.12;100.00;65094.00;5031600;28;20191;-57
2023/07/04 04:48:01;;;;;;;8.68;5.95;;;;;;;19.88;100.00;65070.59;5031377;28;20305;-61
2023/07/04 04:50:30;;;;;;;8.23;6.03;;;;;;;19.83;100.00;65065.63;5013795;28;20348;-61
2023/07/04 04:52:57;;;;;;;9.85;7.03;;;;;;;20.13;100.00;65095.09;5031394;28;20210;-57
2023/07/04 04:55:23;;;;;;;9.70;6.05;;;;;;;20.58;100.00;65147.94;5031212;28;20308;-58
2023/07/04 04:57:49;;;;;;;10.60;5.82;;;;;;;20.77;100.00;65166.41;5013348;28;20221;-58
2023/07/04 05:00:16;;;;;;;10.38;5.80;;;;;;;20.85;100.00;65179.81;5031152;28;20198;-56
2023/07/04 05:02:42;;;;;;;8.13;6.18;;;;;;;21.18;100.00;65213.19;5031250;28;20291;-62
2023/07/04 05:05:08;;;;;;;6.88;6.13;;;;;;;21.31;100.00;65227.59;5031224;28;20225;-60
2023/07/04 05:07:34;;;;;;;8.63;6.55;;;;;;;21.33;100.00;65230.34;5031101;28;20307;-60
2023/07/04 05:10:00;;;;;;;6.72;5.28;;;;;;;21.35;100.00;65229.44;5030969;28;20210;-63
2023/07/04 05:12:26;;;;;;;7.63;5.85;;;;;;;21.38;100.00;65232.75;5030932;28;20186;-56
2023/07/04 05:14:51;;;;;;;6.45;5.43;;;;;;;21.37;100.00;65231.66;5030864;28;20221;-58
2023/07/04 05:17:17;;;;;;;7.20;5.43;;;;;;;21.34;100.00;65228.88;5030994;28;20213;-58
2023/07/04 05:19:43;;;;;;;6.43;5.80;;;;;;;21.30;100.00;65224.47;5030816;28;20677;-58
2023/07/04 05:22:09;;;;;;;6.80;5.93;;;;;;;21.24;100.00;65219.84;5030821;28;20229;-61
2023/07/04 05:24:34;;;;;;;11.13;6.80;;;;;;;21.27;100.00;65220.59;5029137;28;20230;-60
2023/07/04 05:26:59;;;;;;;10.73;7.20;;;;;;;21.37;100.00;65232.19;5030356;28;20236;-60
2023/07/04 05:29:25;;;;;;;10.38;6.97;;;;;;;21.38;100.00;65235.31;5030719;28;20773;-62
2023/07/04 05:31:51;;;;;;;9.90;5.65;;;;;;;21.32;100.00;65226.13;5012130;28;20755;-61
2023/07/04 05:34:16;;;;;;;6.82;6.13;;;;;;;21.16;100.00;65211.53;5012433;28;20594;-61
2023/07/04 05:36:42;;;;;;;9.60;7.05;;;;;;;21.07;100.00;65198.47;5030566;28;20722;-60
2023/07/04 05:39:07;;;;;;;6.75;5.85;;;;;;;21.14;100.00;65209.34;5031059;28;20209;-60
2023/07/04 05:41:35;;;;;;;8.25;6.40;;;;;;;21.08;100.00;65200.13;5030816;28;20627;-61
2023/07/04 05:44:07;;;;;;;8.38;6.57;;;;;;;21.16;100.00;65214.13;5030947;28;20264;-57
2023/07/04 05:46:34;;;;;;;13.38;6.55;;;;;;;21.14;100.00;65206.78;5030468;28;20589;-57
2023/07/04 05:49:00;;;;;;;9.35;5.95;;;;;;;21.18;100.00;65216.31;5030659;28;20213;-61
2023/07/04 05:51:26;;;;;;;7.05;6.35;;;;;;;21.37;100.00;65232.19;5030608;28;20206;-58
2023/07/04 05:53:52;;;;;;;8.88;6.53;;;;;;;21.43;100.00;65238.28;5012663;28;20228;-58
2023/07/04 05:56:21;;;;;;;11.05;6.60;;;;;;;21.37;100.00;65231.66;5030352;28;20226;-58
2023/07/04 05:58:52;;;;;;;9.32;5.60;;;;;;;21.26;100.00;65220.03;5030290;28;20214;-57
2023/07/04 06:01:39;;;;;;;7.70;6.25;;;;;;;21.24;100.00;65220.41;5030383;28;20210;-56
2023/07/04 06:04:07;;;;;;;7.85;5.32;;;;;;;21.33;100.00;65227.78;5030777;28;20581;-58
2023/07/04 06:06:45;;;;;;;9.82;5.70;;;;;;;21.59;100.00;65256.53;5030307;28;20285;-59
2023/07/04 06:09:14;;;;;;;11.30;6.85;;;;;;;21.72;100.00;65270.91;5030594;28;20205;-59
2023/07/04 06:11:45;;;;;;;8.40;6.22;;;;;;;21.79;100.00;65280.13;5030457;28;20260;-58
2023/07/04 06:14:23;;;;;;;11.40;6.72;;;;;;;21.70;100.00;65268.72;5030497;28;20647;-61
2023/07/04 06:16:48;;;;;;;8.32;6.05;;;;;;;21.72;100.00;65270.91;5012710;28;20241;-62
2023/07/04 06:19:14;;;;;;;11.07;6.82;;;;;;;21.89;100.00;65288.66;5030287;28;20206;-61
2023/07/04 06:21:39;;;;;;;9.85;7.03;;;;;;;22.15;100.00;65317.41;5030282;28;20205;-60
2023/07/04 06:24:05;;;;;;;9.43;6.20;;;;;;;22.25;100.00;65329.03;5030617;28;20264;-62
2023/07/04 06:26:32;;;;;;;9.10;6.13;;;;;;;22.33;100.00;65337.34;5030001;28;20256;-62
2023/07/04 06:28:58;;;;;;;9.23;6.43;;;;;;;22.58;100.00;65365.03;5029912;28;20221;-61
2023/07/04 06:31:24;;;;;;;9.50;5.75;;;;;;;22.40;100.00;65345.63;5030074;28;20230;-61
2023/07/04 06:33:50;;;;;;;10.07;7.15;;;;;;;22.48;100.00;65356.53;5029846;28;20667;-61
2023/07/04 06:36:16;;;;;;;9.82;6.90;;;;;;;22.49;100.00;65355.59;5029798;28;20254;-60
2023/07/04 06:38:42;;;;;;;14.93;7.45;;;;;;;22.51;100.00;65357.81;5032662;28;20220;-62
2023/07/04 06:41:13;;;;;;;10.15;6.93;;;;;;;22.67;100.00;65374.44;5033304;28;20209;-60
2023/07/04 06:43:43;;;;;;;10.93;6.25;;;;;;;22.82;100.00;65388.50;5033172;28;20214;-60
2023/07/04 06:46:10;;;;;;;11.93;6.82;;;;;;;23.07;100.00;65418.75;5033197;28;20221;-61
2023/07/04 06:48:36;;;;;;;14.63;6.22;;;;;;;23.22;100.00;65435.91;5033646;28;20237;-60
2023/07/04 06:51:05;;;;;;;11.70;6.13;;;;;;;23.43;97.49;65460.69;5033104;28;20668;-61
2023/07/04 06:53:31;;;;;;;9.27;6.30;;;;;;;23.30;99.98;65441.66;5032868;28;20608;-57
2023/07/04 06:56:23;;;;;;;8.68;6.28;;;;;;;23.33;98.43;65450.69;5033309;28;20249;-61
2023/07/04 06:58:51;;;;;;;11.85;7.38;;;;;;;23.39;95.07;65451.66;5030359;28;20249;-61
2023/07/04 07:01:19;;;;;;;7.30;5.65;;;;;;;23.34;97.78;65448.69;5033014;28;20209;-58
2023/07/04 07:03:44;;;;;;;10.40;6.10;;;;;;;23.37;98.30;65451.44;5032966;28;20218;-57
2023/07/04 07:06:11;;;;;;;9.13;5.82;;;;;;;23.44;97.52;65459.19;5032966;28;20287;-57
2023/07/04 07:08:37;;;;;;;11.82;6.63;;;;;;;23.40;94.53;65454.78;5033204;28;20214;-61
2023/07/04 07:11:05;;;;;;;10.32;6.60;;;;;;;23.55;94.96;65471.97;5032919;28;20198;-62
2023/07/04 07:13:30;;;;;;;9.02;6.18;;;;;;;23.49;96.96;65464.75;5033117;28;20226;-62
2023/07/04 07:16:11;;;;;;;10.95;7.47;;;;;;;23.62;95.60;65479.16;5032660;28;20213;-60
2023/07/04 07:18:37;;;;;;;8.20;5.70;;;;;;;23.69;97.38;65487.47;5033069;28;20249;-60
2023/07/04 07:21:04;;;;;;;9.18;6.60;;;;;;;23.58;94.43;65474.72;5032864;28;20217;-61
2023/07/04 07:23:32;;;;;;;6.28;5.63;;;;;;;23.74;93.62;65492.44;5014895;28;20221;-58
2023/07/04 07:25:59;;;;;;;10.00;6.00;;;;;;;23.73;89.98;65488.78;5032739;28;20202;-61
2023/07/04 07:28:27;;;;;;;6.93;4.95;;;;;;;23.86;88.20;65506.31;5032574;28;20276;-61
2023/07/04 07:31:14;;;;;;;11.93;5.28;;;;;;;24.07;89.40;65529.06;5032609;28;20202;-62
2023/07/04 07:33:42;;;;;;;9.05;6.25;;;;;;;24.25;89.69;65549.00;5032557;28;20279;-61
2023/07/04 07:36:23;;;;;;;10.98;6.60;;;;;;;24.53;88.16;65580.06;5032450;28;20308;-61
2023/07/04 07:38:49;;;;;;;13.00;6.05;;;;;;;24.60;90.90;65585.25;5032915;28;20210;-61
2023/07/04 07:41:16;;;;;;;8.65;6.45;;;;;;;24.75;89.66;65607.06;5032433;28;20272;-61
2023/07/04 07:43:42;;;;;;;7.95;5.53;;;;;;;24.93;86.73;65624.44;5032466;28;20241;-61
2023/07/04 07:46:13;;;;;;;6.32;5.60;;;;;;;24.91;85.69;65622.22;5014776;28;20202;-61
2023/07/04 07:48:39;;;;;;;8.30;6.00;;;;;;;24.84;85.26;65613.91;5031370;28;20229;-61
2023/07/04 07:51:07;;;;;;;8.07;5.82;;;;;;;25.05;85.44;65637.22;5032008;28;20582;-61
2023/07/04 07:53:35;;;;;;;7.13;5.65;;;;;;;25.09;84.26;65639.06;5032389;28;20242;-61
2023/07/04 07:56:00;;;;;;;10.32;5.93;;;;;;;25.05;85.07;65637.22;5032019;28;20214;-61
2023/07/04 07:58:26;;;;;;;12.00;7.30;;;;;;;25.03;84.23;65634.44;5032404;28;20594;-61
2023/07/04 08:00:51;;;;;;;17.30;8.77;;;;;;;24.91;84.17;65621.69;5032161;28;20241;-61
2023/07/04 08:03:17;;;;;;;16.00;9.05;;;;;;;25.12;82.43;65644.44;5031982;28;20226;-61
2023/07/04 08:05:42;;;;;;;12.70;7.13;;;;;;;25.19;83.26;65652.19;5032243;28;20201;-58
2023/07/04 08:08:09;;;;;;;7.05;5.97;;;;;;;25.50;79.69;65687.19;5032014;28;20567;-58
2023/07/04 08:10:40;;;;;;;9.73;6.32;;;;;;;25.43;79.33;65679.41;5032020;28;20230;-57
2023/07/04 08:13:06;;;;;;;10.55;5.68;;;;;;;25.46;82.35;65682.75;5031978;28;20230;-58
2023/07/04 08:15:31;;;;;;;6.93;4.97;;;;;;;25.56;81.02;65691.25;5031656;28;20210;-58
2023/07/04 08:18:03;;;;;;;10.27;5.47;;;;;;;25.54;83.25;65691.06;5032034;28;20329;-57
2023/07/04 08:20:28;;;;;;;10.18;6.25;;;;;;;25.72;78.52;65709.03;5031614;28;20259;-58
2023/07/04 08:22:53;;;;;;;12.02;6.85;;;;;;;25.62;77.72;65695.34;5031846;28;20280;-58
2023/07/04 08:25:19;;;;;;;8.57;6.70;;;;;;;25.69;79.96;65705.69;5031577;28;20209;-58
2023/07/04 08:27:44;;;;;;;9.90;6.97;;;;;;;25.79;77.88;65718.81;5031771;28;20290;-58
2023/07/04 08:30:10;;;;;;;8.23;6.75;;;;;;;25.59;77.92;65696.63;5031636;28;20201;-59
2023/07/04 08:32:35;;;;;;;13.25;6.57;;;;;;;25.60;78.06;65697.72;5013757;28;20241;-58
2023/07/04 08:35:01;;;;;;;8.73;6.93;;;;;;;25.93;76.03;65731.78;5031749;28;20226;-56
2023/07/04 08:37:26;;;;;;;12.88;6.28;;;;;;;25.89;76.38;65729.94;5031497;28;20356;-56
2023/07/04 08:39:52;;;;;;;8.13;5.82;;;;;;;26.23;79.43;65767.72;5031499;28;20586;-62
2023/07/04 08:42:21;;;;;;;9.18;6.22;;;;;;;26.50;78.97;65797.16;5031447;28;20213;-61
2023/07/04 08:44:49;;;;;;;9.35;6.57;;;;;;;26.60;78.27;65805.69;5031352;28;20708;-61
2023/07/04 08:47:18;;;;;;;10.43;6.38;;;;;;;26.53;75.58;65798.44;5031507;28;20213;-63
2023/07/04 08:49:54;;;;;;;11.90;6.63;;;;;;;26.53;75.06;65801.03;5031376;28;20259;-57
2023/07/04 08:52:21;;;;;;;10.63;6.70;;;;;;;26.66;74.70;65814.38;5031554;28;20205;-58
2023/07/04 08:54:47;;;;;;;8.25;6.03;;;;;;;26.88;75.85;65833.66;5031266;28;20222;-59
2023/07/04 08:57:25;;;;;;;10.98;6.18;;;;;;;27.11;72.80;65861.81;5030957;28;20694;-58
2023/07/04 09:00:01;;;;;;;7.80;5.70;;;;;;;27.30;74.16;65886.09;5030750;28;20217;-59
2023/07/04 09:02:47;;;;;;;10.73;6.45;;;;;;;27.39;74.12;65896.09;5031196;28;20206;-59
2023/07/04 09:05:42;;;;;;;8.05;6.30;;;;;;;27.48;73.07;65902.97;5031164;28;20198;-58
2023/07/04 09:08:38;;;;;;;12.23;6.45;;;;;;;27.61;71.05;65920.03;5009834;28;20229;-58
2023/07/04 09:11:09;;;;;;;8.77;6.07;;;;;;;27.20;68.21;65871.81;5031394;28;20218;-58
2023/07/04 09:13:39;;;;;;;6.53;5.43;;;;;;;27.38;68.69;65895.00;5031243;28;20217;-59
2023/07/04 09:16:10;;;;;;;7.60;6.60;;;;;;;27.97;71.42;65956.94;5031031;28;20234;-58
2023/07/04 09:18:52;;;;;;;7.05;5.90;;;;;;;28.14;68.33;65976.38;5030913;28;20598;-57
2023/07/04 09:21:20;;;;;;;10.88;6.13;;;;;;;28.37;67.09;66001.44;5030715;28;20201;-58
2023/07/04 09:23:48;;;;;;;10.82;6.53;;;;;;;28.28;66.75;65991.41;5013108;28;20217;-57
2023/07/04 09:26:17;;;;;;;9.65;6.20;;;;;;;28.32;67.19;65995.84;5030559;28;20198;-57
2023/07/04 09:28:45;;;;;;;9.35;6.85;;;;;;;28.38;66.76;66002.56;5030922;28;20252;-59
2023/07/04 09:31:32;;;;;;;10.27;5.93;;;;;;;28.49;65.83;66014.78;5030581;28;20178;-57
2023/07/04 09:34:06;;;;;;;7.82;5.97;;;;;;;28.69;65.19;66039.09;5030278;28;20217;-57
2023/07/04 09:36:37;;;;;;;9.60;5.90;;;;;;;28.69;62.09;66034.47;5030707;28;20241;-57
2023/07/04 09:39:06;;;;;;;8.40;6.05;;;;;;;28.36;60.26;66002.91;5030557;28;20205;-58
2023/07/04 09:41:33;;;;;;;8.82;6.15;;;;;;;28.27;60.24;65992.91;5030314;28;20198;-58
2023/07/04 09:44:14;;;;;;;9.35;6.38;;;;;;;27.86;60.41;65947.81;5029546;28;20221;-56
2023/07/04 09:46:46;;;;;;;8.30;6.45;;;;;;;28.49;62.61;66016.81;5030076;28;20185;-57
2023/07/04 09:49:25;;;;;;;9.73;6.10;;;;;;;28.30;63.21;65993.63;5030978;28;20206;-58
2023/07/04 09:51:57;;;;;;;7.90;5.70;;;;;;;28.79;60.51;66045.59;5030593;28;20255;-61
2023/07/04 09:54:22;;;;;;;9.07;5.93;;;;;;;28.69;63.36;66037.06;5030374;28;20288;-57
2023/07/04 09:56:47;;;;;;;6.60;5.60;;;;;;;29.05;60.60;66076.56;5030544;28;20194;-58
2023/07/04 09:59:29;;;;;;;9.25;6.15;;;;;;;29.02;60.71;66070.66;5012214;28;20225;-57
2023/07/04 10:02:10;;;;;;;6.90;6.20;;;;;;;29.45;60.70;66123.75;5030351;28;20202;-58
2023/07/04 10:04:37;;;;;;;8.40;6.50;;;;;;;29.47;59.94;66122.81;5012343;28;20672;-57
2023/07/04 10:07:12;;;;;;;7.32;5.63;;;;;;;29.40;61.97;66112.41;5030094;28;20645;-57
2023/07/04 10:09:44;;;;;;;7.38;5.72;;;;;;;29.48;59.42;66124.50;5030288;28;20202;-61
2023/07/04 10:12:13;;;;;;;8.20;6.30;;;;;;;29.55;60.38;66134.88;5029209;28;20299;-62
2023/07/04 10:14:49;;;;;;;11.82;6.95;;;;;;;30.11;61.02;66193.59;5033545;28;20542;-62
2023/07/04 10:17:19;;;;;;;8.80;6.22;;;;;;;30.33;59.47;66218.13;5033629;28;20347;-63
2023/07/04 10:20:13;;;;;;;8.77;6.00;;;;;;;30.46;60.20;66233.16;5033559;28;20205;-61
2023/07/04 10:22:41;;;;;;;9.20;6.05;;;;;;;30.76;55.63;66265.50;5013433;22;20529;-60
2023/07/04 10:25:17;;;;;;;8.40;6.00;;;;;;;30.65;57.38;66253.78;5033110;28;20592;-62
2023/07/04 10:27:47;;;;;;;10.18;6.38;;;;;;;29.97;56.78;66178.53;5032264;28;20229;-63
2023/07/04 10:30:16;;;;;;;7.07;6.45;;;;;;;30.72;57.01;66261.59;5031949;28;20202;-64
2023/07/04 10:32:46;;;;;;;10.68;6.32;;;;;;;30.58;58.97;66246.00;5033370;28;20249;-57
2023/07/04 10:35:18;;;;;;;10.70;6.18;;;;;;;31.10;55.38;66303.44;5033230;28;20214;-57
2023/07/04 10:37:48;;;;;;;8.98;6.53;;;;;;;31.23;54.32;66318.50;5033159;28;20229;-62
2023/07/04 10:40:16;;;;;;;8.70;5.82;;;;;;;31.52;49.03;66349.75;5033391;28;20198;-62
2023/07/04 10:42:53;;;;;;;5.78;5.20;;;;;;;30.37;51.52;66222.59;5033363;28;20222;-63
2023/07/04 10:45:23;;;;;;;8.93;6.43;;;;;;;31.13;51.71;66307.34;5032997;28;20174;-62
2023/07/04 10:47:52;;;;;;;7.80;6.30;;;;;;;31.66;52.50;66365.94;5015398;28;20264;-57
2023/07/04 10:50:27;;;;;;;8.25;6.75;;;;;;;31.47;50.30;66341.56;5033290;28;20202;-58
2023/07/04 10:52:52;;;;;;;7.05;6.28;;;;;;;31.69;49.54;66366.69;5032863;28;20217;-57
2023/07/04 10:55:39;;;;;;;7.63;5.97;;;;;;;31.89;51.90;66388.44;5033147;28;20301;-57
2023/07/04 10:58:26;;;;;;;7.43;6.03;;;;;;;31.74;48.73;66372.25;5033437;28;20222;-57
2023/07/04 11:00:59;;;;;;;9.13;6.13;;;;;;;31.63;50.27;66359.97;5032964;28;20706;-58
2023/07/04 11:03:33;;;;;;;8.63;6.07;;;;;;;31.80;49.33;66381.53;5015634;28;20229;-56
2023/07/04 11:06:01;;;;;;;7.50;6.10;;;;;;;31.92;50.07;66394.97;5032988;28;20246;-56
2023/07/04 11:08:32;;;;;;;7.68;6.05;;;;;;;30.47;54.04;66234.28;5033053;28;20726;-61
2023/07/04 11:11:00;;;;;;;8.77;6.63;;;;;;;30.50;53.69;66235.03;5032888;28;20252;-61
2023/07/04 11:13:26;;;;;;;8.35;6.30;;;;;;;30.19;55.37;66203.06;5032661;28;20225;-57
2023/07/04 11:16:00;;;;;;;9.43;6.70;;;;;;;29.69;57.42;66147.88;5032617;28;20218;-57
2023/07/04 11:18:30;;;;;;;11.60;6.32;;;;;;;29.28;56.74;66102.22;5033127;28;20224;-55
2023/07/04 11:21:19;;;;;;;9.15;6.47;;;;;;;29.24;55.29;66099.81;5033003;28;20201;-58
2023/07/04 11:23:53;;;;;;;11.40;6.63;;;;;;;29.48;57.19;66124.50;5032963;28;20218;-63
2023/07/04 11:26:21;;;;;;;6.93;6.00;;;;;;;29.48;59.44;66121.88;5032829;28;20209;-58
2023/07/04 11:28:49;;;;;;;7.13;5.63;;;;;;;28.99;61.35;66067.88;5032748;28;20222;-58
2023/07/04 11:31:21;;;;;;;8.48;6.15;;;;;;;28.86;57.81;66055.44;5032703;28;20208;-57
2023/07/04 11:33:49;;;;;;;9.02;6.82;;;;;;;28.98;59.71;66066.75;5032583;28;20235;-57